Data for 09/10/2005

Time Sea-Level Adjusted Pressure Absolute Pressure Temperature Relative Humidity Dew Point   
(mb) (inHg) (mb) (inHg) (C) (F) (%) (C) (F)
00:05 1007 29.74 836 24.69 13.4 56.2 61 6 42.9
00:10 1007 29.74 836 24.69 13.4 56.1 61 6 42.9
00:15 1007 29.74 836 24.69 13.4 56.1 60 5.9 42.7
00:20 1007 29.74 836 24.69 13.3 56 61 6.1 42.9
00:25 1007 29.74 836 24.69 13.2 55.8 61 6 42.8
00:30 1007 29.74 836 24.69 13.1 55.6 61 5.9 42.7
00:35 1007 29.74 837 24.72 13.1 55.6 61 5.9 42.7
00:40 1007 29.74 837 24.72 13 55.5 62 6 42.9
00:45 1007 29.74 836 24.69 13 55.4 62 5.9 42.7
00:50 1007 29.74 837 24.72 12.9 55.2 63 6 42.9
00:55 1007 29.74 836 24.69 12.8 55 63 5.9 42.6
01:00 1007 29.74 836 24.69 12.7 54.9 63 6 42.7
01:05 1007 29.74 836 24.69 12.6 54.7 64 6 42.8
01:10 1007 29.74 836 24.69 12.6 54.6 64 6 42.8
01:15 1007 29.74 836 24.69 12.6 54.6 64 6 42.8
01:20 1007 29.74 836 24.69 12.5 54.6 65 6.1 43
01:25 1007 29.74 837 24.72 12.4 54.2 65 6 42.8
01:30 1007 29.74 837 24.72 12.2 54 65 5.9 42.7
01:35 1007 29.74 837 24.72 12.3 54.2 65 6 42.8
01:40 1007 29.74 836 24.69 12.2 53.9 66 6 42.8
01:45 1007 29.74 836 24.69 12.1 53.9 66 6 42.8
01:50 1007 29.74 836 24.69 12.1 53.8 66 6 42.8
01:55 1007 29.74 836 24.69 12.1 53.7 67 6.1 43
02:00 1007 29.74 836 24.69 12.1 53.8 67 6.1 43
02:05 1007 29.74 836 24.69 12.1 53.7 67 6.1 43
02:10 1007 29.74 837 24.72 12 53.5 67 6.1 43.1
02:15 1007 29.74 837 24.72 11.8 53.3 68 6.2 43.1
02:20 1008 29.77 837 24.72 11.7 53.1 68 6.1 43
02:25 1008 29.77 837 24.72 11.6 52.9 68 6 42.9
02:30 1008 29.77 837 24.72 11.7 53 69 6.2 43.1
02:35 1008 29.77 837 24.72 11.6 52.9 69 6.1 43
02:40 1008 29.77 837 24.72 11.5 52.7 70 6.2 43.1
02:45 1008 29.77 837 24.72 11.4 52.4 69 6 42.8
02:50 1008 29.77 837 24.72 11.4 52.6 69 6 42.8
02:55 1008 29.77 837 24.72 11.4 52.5 69 6.1 42.9
03:00 1008 29.77 837 24.72 11.4 52.6 69 6.1 42.9
03:05 1008 29.77 837 24.72 11.4 52.6 69 6.1 42.9
03:10 1007 29.74 837 24.72 11.3 52.4 70 6 42.9
03:15 1007 29.74 837 24.72 11.2 52.2 71 6.2 43.2
03:20 1007 29.74 837 24.72 11.1 52.1 71 6.2 43.1
03:25 1007 29.74 837 24.72 10.9 51.6 73 6.3 43.3
03:30 1007 29.74 837 24.72 10.6 51.1 74 6.3 43.3
03:35 1008 29.77 837 24.72 10.4 50.7 76 6.3 43.4
03:40 1008 29.77 837 24.72 10.1 50.2 77 6.2 43.2
03:45 1008 29.77 837 24.72 10.1 50.3 76 6.2 43.1
03:50 1008 29.77 837 24.72 10.2 50.4 76 6.3 43.3
03:55 1008 29.77 837 24.72 10.1 50.2 77 6.3 43.4
04:00 1008 29.77 837 24.72 10.2 50.3 77 6.4 43.5
04:05 1008 29.77 837 24.72 10.2 50.3 77 6.4 43.5
04:10 1008 29.77 837 24.72 10.2 50.4 77 6.5 43.6
04:15 1008 29.77 838 24.75 10.3 50.5 77 6.4 43.6
04:20 1008 29.77 838 24.75 10.2 50.3 78 6.5 43.8
04:25 1008 29.77 837 24.72 10.2 50.3 78 6.4 43.6
04:30 1008 29.77 837 24.72 10.2 50.3 78 6.5 43.7
04:35 1008 29.77 837 24.72 10.2 50.3 78 6.5 43.8
04:40 1008 29.77 837 24.72 10.2 50.4 78 6.6 43.9
04:45 1008 29.77 837 24.72 10.2 50.3 79 6.8 44.2
04:50 1008 29.77 837 24.72 10.1 50.1 81 7 44.7
04:55 1008 29.77 837 24.72 10.1 50.1 81 7 44.5
05:00 1008 29.77 837 24.72 10.1 50.2 80 6.9 44.4
05:05 1008 29.77 837 24.72 10.2 50.3 80 6.9 44.4
05:10 1008 29.77 837 24.72 10.2 50.3 80 6.9 44.4
05:15 1008 29.77 837 24.72 10.1 50.2 80 6.9 44.4
05:20 1008 29.77 837 24.72 10 50 81 6.9 44.4
05:25 1008 29.77 837 24.72 9.8 49.7 82 6.9 44.3
05:30 1008 29.77 837 24.72 9.7 49.4 83 6.9 44.5
05:35 1008 29.77 837 24.72 9.6 49.2 83 6.8 44.3
05:40 1008 29.77 837 24.72 9.6 49.3 83 6.9 44.4
05:45 1008 29.77 837 24.72 9.6 49.2 83 6.9 44.4
05:50 1008 29.77 837 24.72 9.6 49.3 83 6.8 44.3
05:55 1008 29.77 837 24.72 9.7 49.4 84 7 44.7
06:00 1008 29.77 837 24.72 9.8 49.6 83 7 44.6
06:05 1008 29.77 837 24.72 9.9 49.9 81 6.8 44.3
06:10 1008 29.77 837 24.72 10.1 50.1 81 7 44.7
06:15 1008 29.77 837 24.72 10.1 50.2 81 7.1 44.8
06:20 1008 29.77 837 24.72 10.1 50.1 81 7 44.6
06:25 1008 29.77 837 24.72 10.1 50.2 81 7 44.6
06:30 1008 29.77 837 24.72 10.3 50.5 80 7 44.6
06:35 1008 29.77 837 24.72 10.2 50.4 81 7.1 44.8
06:40 1008 29.77 837 24.72 10.2 50.4 81 7.1 44.7
06:45 1008 29.77 837 24.72 10.2 50.3 81 7.1 44.7
06:50 1007 29.74 837 24.72 10.1 50.2 82 7.1 44.8
06:55 1008 29.77 837 24.72 10.1 50.1 82 7.2 44.9
07:00 1008 29.77 837 24.72 10.2 50.4 81 7.2 44.9
07:05 1008 29.77 837 24.72 10.3 50.6 82 7.4 45.3
07:10 1008 29.77 838 24.75 10.5 50.9 83 7.7 45.8
07:15 1009 29.8 838 24.75 10.3 50.5 87 8.3 46.9
07:20 1008 29.77 838 24.75 9.9 49.7 90 8.4 47.1
07:25 1007 29.74 836 24.69 9.4 49 91 8.1 46.6
07:30 1008 29.77 837 24.72 9.3 48.8 93 8.2 46.8
07:35 1009 29.8 838 24.75 9.5 49 91 8 46.5
07:40 1009 29.8 838 24.75 9.5 49 93 8.4 47.1
07:45 1009 29.8 838 24.75 9.3 48.8 95 8.5 47.4
07:50 1009 29.8 838 24.75 9.3 48.8 95 8.5 47.3
07:55 1009 29.8 838 24.75 9.4 48.8 94 8.5 47.2
08:00 1009 29.8 838 24.75 9.5 49.1 94 8.5 47.4
08:05 1009 29.8 838 24.75 9.3 48.8 95 8.6 47.5
08:10 1008 29.77 838 24.75 9.1 48.4 96 8.5 47.3
08:15 1009 29.8 838 24.75 9.1 48.3 97 8.5 47.4
08:20 1009 29.8 838 24.75 9.1 48.5 96 8.6 47.5
08:25 1009 29.8 838 24.75 9.6 49.3 94 8.8 47.8
08:30 1009 29.8 838 24.75 9.8 49.6 94 8.9 48
08:35 1009 29.8 838 24.75 9.7 49.5 94 8.7 47.7
08:40 1009 29.8 838 24.75 9.7 49.4 94 8.7 47.7
08:45 1009 29.8 838 24.75 9.7 49.5 93 8.7 47.6
08:50 1009 29.8 838 24.75 9.8 49.6 93 8.6 47.6
08:55 1009 29.8 838 24.75 9.8 49.6 92 8.6 47.4
09:00 1009 29.8 839 24.78 9.8 49.6 92 8.6 47.5
09:05 1010 29.83 839 24.78 9.8 49.6 91 8.5 47.2
09:10 1010 29.83 839 24.78 9.8 49.6 93 8.6 47.5
09:15 1010 29.83 839 24.78 9.5 49.1 94 8.5 47.4
09:20 1010 29.83 839 24.78 9.2 48.6 91 7.8 46.1
09:25 1010 29.83 839 24.78 8.8 47.8 90 7.2 45
09:30 1010 29.83 839 24.78 8.5 47.3 91 7.1 44.9
09:35 1010 29.83 839 24.78 8.5 47.2 91 7 44.7
09:40 1010 29.83 839 24.78 8.4 47.1 90 6.9 44.3
09:45 1010 29.83 839 24.78 8.4 47.1 89 6.7 44.1
09:50 1010 29.83 840 24.81 8.3 47 89 6.7 44
09:55 1010 29.83 840 24.81 8.2 46.8 88 6.3 43.4
10:00 1011 29.85 840 24.81 8.2 46.8 88 6.3 43.4
10:05 1011 29.85 840 24.81 8.2 46.8 89 6.5 43.7
10:10 1011 29.85 840 24.81 8.2 46.8 87 6.2 43.2
10:15 1011 29.85 840 24.81 8.1 46.5 86 5.8 42.5
10:20 1011 29.85 840 24.81 7.8 46.1 86 5.7 42.2
10:25 1011 29.85 840 24.81 7.8 46 87 5.7 42.2
10:30 1011 29.85 840 24.81 7.7 45.9 87 5.7 42.3
10:35 1011 29.85 840 24.81 7.8 46.1 87 5.7 42.3
10:40 1011 29.85 840 24.81 8 46.3 86 5.8 42.5
10:45 1011 29.85 840 24.81 8 46.3 87 5.9 42.6
10:50 1011 29.85 840 24.81 8.1 46.6 87 6 42.8
10:55 1011 29.85 841 24.83 8.4 47.1 87 6.3 43.3
11:00 1011 29.85 841 24.83 8.5 47.3 86 6.3 43.3
11:05 1012 29.88 841 24.83 8.2 46.8 86 6 42.9
11:10 1012 29.88 841 24.83 8.4 47.2 86 6.3 43.3
11:15 1012 29.88 841 24.83 8.2 46.7 86 6 42.8
11:20 1012 29.88 841 24.83 7.6 45.6 88 5.7 42.3
11:25 1012 29.88 841 24.83 7.6 45.6 89 5.9 42.5
11:30 1012 29.88 841 24.83 7.6 45.6 88 5.7 42.3
11:35 1012 29.88 841 24.83 7.3 45.2 90 5.8 42.4
11:40 1012 29.88 841 24.83 7.1 44.8 91 5.7 42.3
11:45 1012 29.88 842 24.86 7.1 44.8 90 5.6 42.1
11:50 1012 29.88 842 24.86 7.1 44.7 92 5.8 42.5
11:55 1012 29.88 842 24.86 7.3 45.2 90 5.8 42.4
12:00 1012 29.88 841 24.83 7.3 45.1 91 6 42.7
12:05 1012 29.88 841 24.83 7.3 45.1 92 6.1 43
12:10 1012 29.88 841 24.83 7.8 46 90 6.3 43.3
12:15 1012 29.88 841 24.83 8.2 46.7 90 6.6 43.9
12:20 1012 29.88 841 24.83 8 46.3 88 6.2 43.1
12:25 1012 29.88 841 24.83 7.9 46.2 88 6.1 42.9
12:30 1012 29.88 841 24.83 8.1 46.6 89 6.4 43.5
12:35 1012 29.88 841 24.83 8.6 47.4 85 6.2 43.2
12:40 1012 29.88 842 24.86 8.6 47.5 84 6.1 43
12:45 1012 29.88 842 24.86 8.4 47.2 85 6 42.8
12:50 1012 29.88 842 24.86 8.4 47.1 84 5.9 42.7
12:55 1012 29.88 842 24.86 8.6 47.4 83 5.8 42.4
13:00 1012 29.88 842 24.86 8.7 47.7 82 5.9 42.5
13:05 1012 29.88 842 24.86 8.9 47.9 82 6 42.8
13:10 1012 29.88 842 24.86 9.1 48.3 84 6.6 43.8
13:15 1013 29.91 842 24.86 9.2 48.6 85 6.8 44.2
13:20 1013 29.91 842 24.86 9.1 48.4 86 6.9 44.3
13:25 1013 29.91 842 24.86 8.6 47.6 87 6.6 43.9
13:30 1013 29.91 842 24.86 8.4 47 89 6.6 44
13:35 1013 29.91 842 24.86 8.2 46.8 90 6.8 44.2
13:40 1013 29.91 842 24.86 8.3 47 89 6.6 43.9
13:45 1013 29.91 842 24.86 8.4 47.2 88 6.5 43.7
13:50 1013 29.91 842 24.86 8.5 47.3 87 6.4 43.5
13:55 1013 29.91 842 24.86 8.6 47.5 86 6.4 43.5
14:00 1013 29.91 842 24.86 8.8 47.8 84 6.2 43.1
14:05 1013 29.91 842 24.86 8.8 47.9 82 5.9 42.6
14:10 1013 29.91 842 24.86 9.1 48.3 82 6.3 43.3
14:15 1013 29.91 842 24.86 9.2 48.6 82 6.3 43.3
14:20 1013 29.91 842 24.86 9.2 48.6 81 6.2 43.2
14:25 1013 29.91 842 24.86 9.1 48.4 84 6.5 43.7
14:30 1013 29.91 842 24.86 9.3 48.7 80 6 42.8
14:35 1013 29.91 842 24.86 9.3 48.7 79 5.9 42.6
14:40 1013 29.91 843 24.89 9.4 48.9 77 5.6 42.1
14:45 1013 29.91 843 24.89 9.8 49.6 75 5.6 42.1
14:50 1013 29.91 843 24.89 9.6 49.2 78 5.9 42.6
14:55 1013 29.91 843 24.89 9.3 48.7 77 5.6 42
15:00 1014 29.94 843 24.89 9.5 49.1 78 5.8 42.5
15:05 1014 29.94 843 24.89 9.8 49.6 77 6.1 42.9
15:10 1014 29.94 843 24.89 10 49.9 66 3.9 39
15:15 1014 29.94 843 24.89 10.3 50.6 62 3.5 38.3
15:20 1013 29.91 843 24.89 10.8 51.4 61 3.6 38.5
15:25 1014 29.94 843 24.89 10.9 51.7 65 4.6 40.2
15:30 1014 29.94 843 24.89 11 51.8 62 4.1 39.3
15:35 1014 29.94 843 24.89 11 51.7 63 4.3 39.8
15:40 1014 29.94 843 24.89 10.9 51.6 63 4.1 39.4
15:45 1014 29.94 843 24.89 10.7 51.3 64 4.3 39.7
15:50 1014 29.94 843 24.89 10.1 50.1 70 4.8 40.7
15:55 1014 29.94 843 24.89 9.3 48.7 72 4.6 40.3
16:00 1014 29.94 843 24.89 9.2 48.6 72 4.5 40.1
16:05 1014 29.94 843 24.89 9.4 48.9 71 4.4 39.9
16:10 1014 29.94 843 24.89 9.4 48.9 69 4.1 39.4
16:15 1014 29.94 843 24.89 9.6 49.3 68 4.1 39.4
16:20 1014 29.94 843 24.89 9.5 49.2 67 3.7 38.6
16:25 1014 29.94 843 24.89 9.4 49 66 3.4 38.2
16:30 1014 29.94 843 24.89 9.6 49.2 67 3.7 38.7
16:35 1014 29.94 843 24.89 9.6 49.2 69 4.1 39.4
16:40 1014 29.94 843 24.89 9.4 48.8 68 3.8 38.9
16:45 1014 29.94 844 24.92 9.2 48.5 66 3.2 37.8
16:50 1015 29.97 844 24.92 9.1 48.4 68 3.5 38.4
16:55 1014 29.94 844 24.92 9 48.2 68 3.5 38.3
17:00 1014 29.94 844 24.92 8.6 47.5 69 3.4 38
17:05 1014 29.94 844 24.92 8.4 47.1 73 3.8 38.9
17:10 1014 29.94 844 24.92 8.4 47.1 73 3.8 38.9
17:15 1014 29.94 844 24.92 8.4 47.1 73 3.9 39
17:20 1015 29.97 844 24.92 8.7 47.7 72 4 39.2
17:25 1015 29.97 844 24.92 9.1 48.4 71 4.3 39.7
17:30 1015 29.97 844 24.92 9.1 48.4 71 4.1 39.3
17:35 1015 29.97 844 24.92 9.1 48.4 70 4 39.2
17:40 1015 29.97 844 24.92 9.1 48.4 69 3.7 38.7
17:45 1015 29.97 844 24.92 9 48.2 67 3.3 37.9
17:50 1015 29.97 844 24.92 9.2 48.6 68 3.7 38.7
17:55 1015 29.97 844 24.92 9.3 48.8 67 3.6 38.5
18:00 1015 29.97 844 24.92 9.3 48.7 65 3 37.4
18:05 1015 29.97 844 24.92 9.1 48.4 67 3.4 38.2
18:10 1015 29.97 845 24.95 9.2 48.5 66 3.1 37.6
18:15 1015 29.97 845 24.95 9.3 48.7 66 3.3 37.9
18:20 1015 29.97 845 24.95 9.3 48.7 65 3.1 37.5
18:25 1016 30 845 24.95 9.3 48.8 65 3 37.4
18:30 1016 30 845 24.95 9.3 48.7 64 2.8 37.1
18:35 1016 30 845 24.95 9.1 48.5 63 2.5 36.4
18:40 1016 30 845 24.95 9.1 48.4 65 3 37.4
18:45 1016 30 845 24.95 9.1 48.4 65 2.9 37.2
18:50 1016 30 845 24.95 9.1 48.3 66 3.2 37.7
18:55 1016 30 845 24.95 9 48.3 65 2.8 37.1
19:00 1016 30 845 24.95 9 48.3 66 3 37.4
19:05 1016 30 845 24.95 8.8 47.8 67 2.9 37.2
19:10 1016 30 845 24.95 8.6 47.4 67 2.7 36.9
19:15 1016 30 845 24.95 8.5 47.2 67 2.7 36.9
19:20 1015 29.97 845 24.95 8.4 47 67 2.5 36.5
19:25 1016 30 845 24.95 8.3 47 69 2.9 37.3
19:30 1016 30 845 24.95 8.4 47.1 68 2.8 37.1
19:35 1016 30 845 24.95 8.4 47 69 3.1 37.5
19:40 1016 30 845 24.95 8.4 47.1 67 2.6 36.7
19:45 1016 30 845 24.95 8.3 47 69 2.9 37.2
19:50 1015 29.97 845 24.95 8.2 46.7 70 3 37.4
19:55 1016 30 845 24.95 8.1 46.6 69 2.8 37.1
20:00 1016 30 845 24.95 8.2 46.8 68 2.8 37
20:05 1015 29.97 845 24.95 8.2 46.7 70 3.1 37.6
20:10 1015 29.97 845 24.95 8 46.3 73 3.5 38.2
20:15 1015 29.97 845 24.95 7.8 46 74 3.5 38.2
20:20 1015 29.97 844 24.92 7.7 45.8 72 3 37.4
20:25 1015 29.97 845 24.95 7.7 45.8 72 3 37.5
20:30 1016 30 845 24.95 7.7 45.8 71 2.7 36.9
20:35 1015 29.97 845 24.95 7.9 46.1 70 2.8 37
20:40 1015 29.97 844 24.92 7.8 46 72 3.1 37.5
20:45 1015 29.97 844 24.92 7.5 45.6 74 3.2 37.7
20:50 1015 29.97 844 24.92 7.4 45.2 74 3.1 37.6
20:55 1015 29.97 844 24.92 7.2 45 73 2.8 37
21:00 1015 29.97 845 24.95 7.3 45.2 73 2.9 37.2
21:05 1016 30 845 24.95 7.4 45.4 74 3.1 37.6
21:10 1016 30 845 24.95 7.3 45.2 75 3.3 37.9
21:15 1015 29.97 844 24.92 7.1 44.8 76 3.2 37.8
21:20 1015 29.97 844 24.92 6.9 44.5 77 3.2 37.7
21:25 1016 30 845 24.95 6.8 44.3 76 3 37.3
21:30 1016 30 845 24.95 6.7 44.1 78 3.1 37.7
21:35 1015 29.97 845 24.95 6.5 43.8 78 2.9 37.3
21:40 1015 29.97 845 24.95 6.5 43.7 78 3 37.4
21:45 1016 30 845 24.95 6.5 43.7 78 2.9 37.3
21:50 1016 30 845 24.95 6.5 43.7 77 2.7 36.9
21:55 1016 30 845 24.95 6.6 44 78 3 37.5
22:00 1016 30 845 24.95 6.6 43.8 78 3 37.4
22:05 1016 30 845 24.95 6.3 43.4 79 2.9 37.2
22:10 1016 30 845 24.95 6.3 43.3 79 2.9 37.2
22:15 1016 30 846 24.98 6.3 43.4 80 3.1 37.6
22:20 1016 30 846 24.98 5.9 42.6 81 3 37.3
22:25 1016 30 845 24.95 5.8 42.4 81 2.8 37
22:30 1016 30 845 24.95 5.9 42.6 81 2.8 37.1
22:35 1016 30 845 24.95 5.9 42.6 81 2.9 37.3
22:40 1016 30 845 24.95 5.9 42.6 82 3.1 37.6
22:45 1016 30 846 24.98 5.8 42.5 83 3.2 37.7
22:50 1016 30 846 24.98 5.5 42 85 3.2 37.8
22:55 1016 30 846 24.98 5.3 41.6 85 2.9 37.3
23:00 1016 30 846 24.98 5.5 41.9 84 3 37.4
23:05 1016 30 846 24.98 5.7 42.2 83 3.1 37.5
23:10 1016 30 846 24.98 5.8 42.4 82 3 37.4
23:15 1017 30.03 846 24.98 5.8 42.5 83 3.2 37.7
23:20 1017 30.03 846 24.98 6 42.7 82 3.1 37.5
23:25 1017 30.03 846 24.98 6.1 43 81 3.1 37.5
23:30 1017 30.03 846 24.98 6.3 43.3 80 3.1 37.5
23:35 1017 30.03 846 24.98 6.3 43.3 81 3.3 38
23:40 1017 30.03 846 24.98 6.3 43.3 81 3.2 37.8
23:45 1017 30.03 846 24.98 6 42.8 83 3.4 38.1
23:50 1017 30.03 846 24.98 5.5 42 85 3.2 37.7
23:55 1017 30.03 846 24.98 5.6 42 84 3.1 37.6
24:00 1017 30.03 846 24.98 5.6 42.1 83 3 37.4